Time;durP1;ratioP1;P1;durP2;ratioP2;P2;SDS_P1;SDS_P2;PMS_P1;PMS_P2;Temp;Humidity;BMP_temperature;BMP_pressure;BME280_temperature;BME280_humidity;BME280_pressure;Samples;Min_cycle;Max_cycle;Signal;HPM_P1;HPM_P2
2024/05/02 00:01:56;;;;;;;1.73;1.63;;;;;;;;;;5524532;26;20331;-79
2024/05/02 00:04:22;;;;;;;3.80;1.90;;;;;;;;;;5523400;26;20421;-79
2024/05/02 00:06:48;;;;;;;3.30;1.67;;;;;;;;;;5523179;26;20694;-79
2024/05/02 00:09:14;;;;;;;3.35;1.80;;;;;;;;;;5523179;26;20331;-79
2024/05/02 00:11:40;;;;;;;2.13;1.80;;;;;;;;;;5523183;26;20424;-79
2024/05/02 00:14:06;;;;;;;2.38;1.40;;;;;;;;;;5522961;26;20666;-79
2024/05/02 00:16:36;;;;;;;6.15;2.30;;;;;;;;;;5523069;26;20419;-79
2024/05/02 00:19:02;;;;;;;2.65;1.90;;;;;;;;;;5522762;26;20386;-79
2024/05/02 00:21:28;;;;;;;2.78;1.98;;;;;;;;;;5523092;26;20332;-79
2024/05/02 00:23:54;;;;;;;1.85;1.75;;;;;;;;;;5522539;26;20364;-79
2024/05/02 00:26:20;;;;;;;2.00;1.75;;;;;;;;;;5524120;26;20304;-79
2024/05/02 00:28:46;;;;;;;2.80;1.73;;;;;;;;;;5521278;26;20650;-79
2024/05/02 00:31:16;;;;;;;1.83;1.70;;;;;;;;;;5524107;26;20346;-79
2024/05/02 00:33:42;;;;;;;2.03;1.73;;;;;;;;;;5523986;26;20316;-79
2024/05/02 00:36:08;;;;;;;1.70;1.60;;;;;;;;;;5523816;26;20525;-79
2024/05/02 00:38:34;;;;;;;4.75;1.70;;;;;;;;;;5507646;26;20363;-79
2024/05/02 00:41:00;;;;;;;2.55;1.77;;;;;;;;;;5523700;26;20336;-79
2024/05/02 00:43:26;;;;;;;2.20;1.60;;;;;;;;;;5523088;26;20328;-79
2024/05/02 00:45:53;;;;;;;2.38;1.75;;;;;;;;;;5522961;26;20800;-79
2024/05/02 00:48:21;;;;;;;2.33;1.60;;;;;;;;;;5526282;26;20880;-79
2024/05/02 00:50:47;;;;;;;2.85;1.70;;;;;;;;;;5527008;26;20323;-79
2024/05/02 00:53:13;;;;;;;1.77;1.50;;;;;;;;;;5526780;26;20324;-79
2024/05/02 00:55:42;;;;;;;2.92;1.70;;;;;;;;;;5520520;26;20375;-79
2024/05/02 00:58:08;;;;;;;2.10;1.90;;;;;;;;;;5526971;26;20320;-79
2024/05/02 01:00:34;;;;;;;4.13;1.98;;;;;;;;;;5525686;26;20323;-79
2024/05/02 01:03:00;;;;;;;3.00;1.60;;;;;;;;;;5526091;26;20923;-79
2024/05/02 01:05:26;;;;;;;2.75;2.00;;;;;;;;;;5525811;26;20340;-79
2024/05/02 01:07:52;;;;;;;3.47;1.98;;;;;;;;;;5526092;26;20411;-79
2024/05/02 01:10:18;;;;;;;1.98;1.77;;;;;;;;;;5526260;26;20320;-79
2024/05/02 01:12:45;;;;;;;2.67;1.80;;;;;;;;;;5525883;26;20737;-79
2024/05/02 01:15:11;;;;;;;2.13;1.70;;;;;;;;;;5526026;26;20320;-79
2024/05/02 01:17:37;;;;;;;2.15;1.60;;;;;;;;;;5525952;26;20315;-79
2024/05/02 01:20:04;;;;;;;1.60;1.48;;;;;;;;;;5526039;26;20913;-79
2024/05/02 01:22:31;;;;;;;1.63;1.53;;;;;;;;;;5525804;26;20900;-79
2024/05/02 01:24:57;;;;;;;2.63;1.67;;;;;;;;;;5525613;26;20412;-79
2024/05/02 01:27:23;;;;;;;1.90;1.70;;;;;;;;;;5492961;26;20765;-79
2024/05/02 01:29:49;;;;;;;1.80;1.60;;;;;;;;;;5523536;26;20315;-79
2024/05/02 01:32:15;;;;;;;1.70;1.60;;;;;;;;;;5525376;26;20828;-79
2024/05/02 01:34:41;;;;;;;2.65;1.70;;;;;;;;;;5525221;26;20316;-79
2024/05/02 01:37:07;;;;;;;2.90;1.60;;;;;;;;;;5514104;26;20405;-79
2024/05/02 01:39:33;;;;;;;1.92;1.80;;;;;;;;;;5521140;26;20742;-79
2024/05/02 01:41:59;;;;;;;2.35;1.85;;;;;;;;;;5525615;26;20449;-84
2024/05/02 01:44:25;;;;;;;2.10;1.85;;;;;;;;;;5492854;26;20344;-78
2024/05/02 01:46:51;;;;;;;1.67;1.58;;;;;;;;;;5525504;26;20323;-80
2024/05/02 01:49:17;;;;;;;2.10;1.88;;;;;;;;;;5525601;26;20906;-79
2024/05/02 01:51:43;;;;;;;3.05;1.60;;;;;;;;;;5525047;26;20717;-79
2024/05/02 01:54:09;;;;;;;3.03;1.92;;;;;;;;;;5492693;26;20335;-80
2024/05/02 01:56:35;;;;;;;2.25;1.60;;;;;;;;;;5525666;26;20315;-79
2024/05/02 01:59:03;;;;;;;2.42;2.17;;;;;;;;;;5524880;26;20368;-80
2024/05/02 02:01:29;;;;;;;2.10;1.90;;;;;;;;;;5525218;26;20324;-80
2024/05/02 02:03:55;;;;;;;1.85;1.70;;;;;;;;;;5524807;26;20351;-79
2024/05/02 02:06:22;;;;;;;2.72;1.90;;;;;;;;;;5525136;26;20320;-79
2024/05/02 02:08:48;;;;;;;2.03;1.83;;;;;;;;;;5524914;26;20400;-79
2024/05/02 02:11:14;;;;;;;1.90;1.75;;;;;;;;;;5526110;26;20672;-79
2024/05/02 02:13:41;;;;;;;2.88;1.83;;;;;;;;;;5524693;26;20316;-79
2024/05/02 02:16:09;;;;;;;1.90;1.80;;;;;;;;;;5525132;26;20369;-79
2024/05/02 02:18:35;;;;;;;1.98;1.67;;;;;;;;;;5525544;26;20443;-79
2024/05/02 02:21:02;;;;;;;2.45;1.70;;;;;;;;;;5525319;26;20324;-80
2024/05/02 02:23:28;;;;;;;2.60;1.70;;;;;;;;;;5525741;26;21098;-79
2024/05/02 02:25:54;;;;;;;2.30;2.00;;;;;;;;;;5524727;26;20386;-79
2024/05/02 02:28:20;;;;;;;1.80;1.70;;;;;;;;;;5525161;26;20363;-79
2024/05/02 02:30:46;;;;;;;2.30;1.80;;;;;;;;;;5522513;26;20629;-79
2024/05/02 02:33:12;;;;;;;1.92;1.80;;;;;;;;;;5474944;26;20440;-79
2024/05/02 02:35:38;;;;;;;2.40;1.60;;;;;;;;;;5512679;26;20867;-79
2024/05/02 02:38:04;;;;;;;1.83;1.73;;;;;;;;;;5508481;26;20327;-79
2024/05/02 02:40:31;;;;;;;2.70;1.90;;;;;;;;;;5524144;26;20395;-79
2024/05/02 02:42:57;;;;;;;1.80;1.70;;;;;;;;;;5524136;26;20315;-78
2024/05/02 02:45:23;;;;;;;2.10;1.90;;;;;;;;;;5524433;26;20364;-78
2024/05/02 02:47:49;;;;;;;2.30;1.90;;;;;;;;;;5524322;26;20392;-78
2024/05/02 02:50:15;;;;;;;2.80;2.10;;;;;;;;;;5523917;26;20323;-78
2024/05/02 02:52:41;;;;;;;3.63;2.03;;;;;;;;;;5523522;26;20555;-78
2024/05/02 02:55:08;;;;;;;2.65;2.28;;;;;;;;;;5523578;26;20350;-78
2024/05/02 02:57:34;;;;;;;2.20;2.00;;;;;;;;;;5523651;26;20821;-78
2024/05/02 03:00:00;;;;;;;3.10;2.33;;;;;;;;;;5517663;26;20468;-78
2024/05/02 03:02:26;;;;;;;2.20;2.00;;;;;;;;;;5491483;26;20324;-78
2024/05/02 03:04:52;;;;;;;2.58;2.20;;;;;;;;;;5523964;26;20356;-78
2024/05/02 03:07:18;;;;;;;3.20;2.33;;;;;;;;;;5523498;26;20319;-78
2024/05/02 03:09:44;;;;;;;2.42;2.22;;;;;;;;;;5522443;26;20316;-78
2024/05/02 03:12:10;;;;;;;2.47;1.90;;;;;;;;;;5523545;26;20324;-78
2024/05/02 03:14:36;;;;;;;2.80;2.50;;;;;;;;;;5524500;26;20352;-79
2024/05/02 03:17:02;;;;;;;2.60;2.40;;;;;;;;;;5524323;26;20323;-79
2024/05/02 03:19:28;;;;;;;3.28;2.33;;;;;;;;;;5523756;26;20362;-78
2024/05/02 03:21:54;;;;;;;2.50;2.20;;;;;;;;;;5523725;26;20824;-80
2024/05/02 03:24:20;;;;;;;3.05;2.33;;;;;;;;;;5524412;26;20332;-78
2024/05/02 03:26:46;;;;;;;2.97;2.42;;;;;;;;;;5524109;26;20328;-78
2024/05/02 03:29:12;;;;;;;4.72;2.53;;;;;;;;;;5524823;26;20367;-80
2024/05/02 03:31:38;;;;;;;3.17;2.40;;;;;;;;;;5523252;26;20868;-78
2024/05/02 03:34:04;;;;;;;3.00;2.70;;;;;;;;;;5524354;26;20375;-79
2024/05/02 03:36:31;;;;;;;2.38;2.17;;;;;;;;;;5523119;26;20356;-79
2024/05/02 03:38:57;;;;;;;3.08;2.70;;;;;;;;;;5510901;26;20932;-79
2024/05/02 03:41:23;;;;;;;2.83;2.50;;;;;;;;;;5492244;26;20315;-80
2024/05/02 03:43:50;;;;;;;3.30;3.00;;;;;;;;;;5523771;26;20672;-77
2024/05/02 03:46:16;;;;;;;3.60;2.87;;;;;;;;;;5524662;26;20323;-80
2024/05/02 03:48:44;;;;;;;4.00;2.45;;;;;;;;;;5524695;26;20324;-79
2024/05/02 03:51:11;;;;;;;3.45;2.58;;;;;;;;;;5524500;26;20364;-78
2024/05/02 03:53:37;;;;;;;3.35;2.45;;;;;;;;;;5524718;26;20418;-78
2024/05/02 03:56:03;;;;;;;3.83;2.40;;;;;;;;;;5524285;26;20331;-78
2024/05/02 03:58:29;;;;;;;4.10;2.50;;;;;;;;;;5524155;26;20368;-80
2024/05/02 04:00:55;;;;;;;3.33;2.50;;;;;;;;;;5524703;26;21071;-78
2024/05/02 04:03:21;;;;;;;4.93;2.70;;;;;;;;;;5524672;26;20328;-79
2024/05/02 04:05:47;;;;;;;4.90;2.85;;;;;;;;;;5524431;26;20738;-79
2024/05/02 04:08:13;;;;;;;3.03;2.72;;;;;;;;;;5524574;26;20332;-79
2024/05/02 04:10:39;;;;;;;3.25;2.70;;;;;;;;;;5524081;26;20375;-79
2024/05/02 04:13:05;;;;;;;4.30;2.33;;;;;;;;;;5515200;25;20322;-79
2024/05/02 04:15:31;;;;;;;3.78;2.67;;;;;;;;;;5498907;26;20732;-79
2024/05/02 04:17:58;;;;;;;3.45;2.65;;;;;;;;;;5510143;26;20328;-79
2024/05/02 04:20:24;;;;;;;4.45;2.40;;;;;;;;;;5523861;26;20398;-79
2024/05/02 04:22:50;;;;;;;2.80;2.60;;;;;;;;;;5526644;26;20331;-79
2024/05/02 04:25:17;;;;;;;2.60;2.38;;;;;;;;;;5528074;26;20380;-79
2024/05/02 04:27:43;;;;;;;2.90;2.60;;;;;;;;;;5527710;26;20778;-79
2024/05/02 04:30:09;;;;;;;2.60;2.40;;;;;;;;;;5527399;26;20919;-78
2024/05/02 04:32:35;;;;;;;2.90;2.60;;;;;;;;;;5527205;26;20335;-79
2024/05/02 04:35:01;;;;;;;3.67;2.83;;;;;;;;;;5525950;26;20339;-79
2024/05/02 04:37:27;;;;;;;4.10;2.90;;;;;;;;;;5527077;26;20871;-79
2024/05/02 04:39:53;;;;;;;3.00;2.70;;;;;;;;;;5526922;26;20324;-79
2024/05/02 04:42:19;;;;;;;4.47;3.20;;;;;;;;;;5527921;26;20380;-80
2024/05/02 04:44:45;;;;;;;5.10;2.80;;;;;;;;;;5527632;26;20335;-79
2024/05/02 04:47:12;;;;;;;2.97;2.63;;;;;;;;;;5527184;26;20807;-79
2024/05/02 04:49:38;;;;;;;3.17;2.72;;;;;;;;;;5527177;26;20339;-79
2024/05/02 04:52:04;;;;;;;3.00;2.63;;;;;;;;;;5527605;26;20700;-79
2024/05/02 04:54:30;;;;;;;2.70;2.50;;;;;;;;;;5527663;26;20377;-79
2024/05/02 04:56:56;;;;;;;3.03;2.65;;;;;;;;;;5527063;26;20335;-79
2024/05/02 04:59:22;;;;;;;3.53;2.70;;;;;;;;;;5526764;26;20324;-80
2024/05/02 05:01:48;;;;;;;3.15;2.75;;;;;;;;;;5527367;26;20324;-80
2024/05/02 05:04:14;;;;;;;2.70;2.50;;;;;;;;;;5527505;26;20836;-80
2024/05/02 05:06:40;;;;;;;4.60;2.47;;;;;;;;;;5526420;26;20338;-80
2024/05/02 05:09:06;;;;;;;2.85;2.50;;;;;;;;;;5506396;26;20335;-80
2024/05/02 05:11:32;;;;;;;2.85;2.47;;;;;;;;;;5528374;26;20360;-80
2024/05/02 05:13:58;;;;;;;4.20;2.57;;;;;;;;;;5527408;26;20340;-80
2024/05/02 05:16:24;;;;;;;3.17;2.40;;;;;;;;;;5528314;26;20688;-79
2024/05/02 05:18:50;;;;;;;3.92;2.63;;;;;;;;;;5495423;26;20332;-80
2024/05/02 05:21:16;;;;;;;3.08;2.30;;;;;;;;;;5495793;26;20394;-79
2024/05/02 05:23:42;;;;;;;3.53;2.65;;;;;;;;;;5527772;26;20324;-80
2024/05/02 05:26:08;;;;;;;3.63;2.70;;;;;;;;;;5527382;26;20855;-79
2024/05/02 05:28:34;;;;;;;3.45;2.35;;;;;;;;;;5526713;26;20399;-79
2024/05/02 05:31:00;;;;;;;3.27;2.63;;;;;;;;;;5526521;26;20324;-79
2024/05/02 05:33:26;;;;;;;2.90;2.33;;;;;;;;;;5525570;26;20368;-79
2024/05/02 05:35:52;;;;;;;3.60;2.50;;;;;;;;;;5524624;26;20323;-79
2024/05/02 05:38:18;;;;;;;5.57;3.10;;;;;;;;;;5510737;26;20371;-80
2024/05/02 05:40:44;;;;;;;3.10;2.80;;;;;;;;;;5527295;26;20320;-80
2024/05/02 05:43:10;;;;;;;5.70;3.40;;;;;;;;;;5526489;26;20358;-80
2024/05/02 05:45:36;;;;;;;5.70;3.53;;;;;;;;;;5526831;26;20319;-80
2024/05/02 05:48:02;;;;;;;5.05;2.60;;;;;;;;;;5525762;26;20395;-80
2024/05/02 05:50:28;;;;;;;3.20;2.87;;;;;;;;;;5525486;26;20718;-80
2024/05/02 05:52:54;;;;;;;3.65;3.20;;;;;;;;;;5525923;26;20320;-80
2024/05/02 05:55:23;;;;;;;4.30;3.00;;;;;;;;;;5525105;26;20793;-80
2024/05/02 05:57:49;;;;;;;3.90;3.30;;;;;;;;;;5525768;26;20721;-80
2024/05/02 06:00:15;;;;;;;5.18;3.33;;;;;;;;;;5524821;26;20350;-80
2024/05/02 06:02:41;;;;;;;5.43;2.92;;;;;;;;;;5524901;26;20680;-80
2024/05/02 06:05:07;;;;;;;10.30;3.67;;;;;;;;;;5525033;26;20371;-80
2024/05/02 06:07:33;;;;;;;6.60;4.18;;;;;;;;;;5524599;26;20316;-80
2024/05/02 06:09:59;;;;;;;4.50;3.40;;;;;;;;;;5525492;26;20840;-81
2024/05/02 06:12:25;;;;;;;6.68;3.60;;;;;;;;;;5524780;26;20367;-80
2024/05/02 06:14:51;;;;;;;5.18;3.78;;;;;;;;;;5525157;26;20715;-80
2024/05/02 06:17:17;;;;;;;6.47;3.70;;;;;;;;;;5524599;26;20372;-80
2024/05/02 06:19:43;;;;;;;5.00;3.92;;;;;;;;;;5524658;26;20355;-80
2024/05/02 06:22:09;;;;;;;7.55;4.53;;;;;;;;;;5524495;26;20323;-80
2024/05/02 06:24:35;;;;;;;4.97;3.38;;;;;;;;;;5524654;26;20343;-80
2024/05/02 06:27:01;;;;;;;8.52;4.68;;;;;;;;;;5524626;26;20767;-80
2024/05/02 06:29:27;;;;;;;6.90;4.82;;;;;;;;;;5524136;26;20933;-80
2024/05/02 06:31:53;;;;;;;8.23;4.73;;;;;;;;;;5524692;26;20332;-80
2024/05/02 06:34:19;;;;;;;6.82;4.68;;;;;;;;;;5523923;26;20328;-80
2024/05/02 06:36:45;;;;;;;8.18;4.22;;;;;;;;;;5518667;26;20361;-80
2024/05/02 06:39:11;;;;;;;5.30;4.40;;;;;;;;;;5514284;26;20323;-80
2024/05/02 06:41:37;;;;;;;7.68;4.68;;;;;;;;;;5524427;26;20315;-80
2024/05/02 06:44:03;;;;;;;6.43;4.80;;;;;;;;;;5523000;26;20456;-81
2024/05/02 06:46:29;;;;;;;6.87;4.73;;;;;;;;;;5523758;26;20353;-80
2024/05/02 06:48:55;;;;;;;7.45;4.18;;;;;;;;;;5524226;26;20443;-80
2024/05/02 06:51:22;;;;;;;6.97;4.50;;;;;;;;;;5524198;26;20323;-80
2024/05/02 06:53:49;;;;;;;10.45;4.97;;;;;;;;;;5523933;26;20316;-80
2024/05/02 06:56:15;;;;;;;5.22;4.05;;;;;;;;;;5524404;26;20355;-80
2024/05/02 06:58:41;;;;;;;5.72;4.03;;;;;;;;;;5522585;26;20319;-80
2024/05/02 07:01:07;;;;;;;6.35;4.35;;;;;;;;;;5519912;26;20315;-80
2024/05/02 07:03:33;;;;;;;5.45;4.10;;;;;;;;;;5523797;26;20368;-80
2024/05/02 07:05:59;;;;;;;6.22;4.45;;;;;;;;;;5524115;26;20315;-80
2024/05/02 07:08:25;;;;;;;8.93;5.00;;;;;;;;;;5523533;26;20397;-80
2024/05/02 07:10:51;;;;;;;9.52;6.60;;;;;;;;;;5524044;26;20316;-80
2024/05/02 07:13:17;;;;;;;6.50;4.80;;;;;;;;;;5523644;26;20868;-80
2024/05/02 07:15:43;;;;;;;5.28;4.20;;;;;;;;;;5523712;26;20358;-81
2024/05/02 07:18:09;;;;;;;4.10;3.60;;;;;;;;;;5524074;26;20362;-80
2024/05/02 07:20:35;;;;;;;6.25;3.97;;;;;;;;;;5523584;26;20832;-81
2024/05/02 07:23:04;;;;;;;5.37;4.20;;;;;;;;;;5526796;26;20323;-79
2024/05/02 07:25:30;;;;;;;6.60;4.13;;;;;;;;;;5523980;26;20327;-79
2024/05/02 07:27:56;;;;;;;4.47;4.07;;;;;;;;;;5524160;26;20312;-79
2024/05/02 07:30:22;;;;;;;4.93;4.20;;;;;;;;;;5523632;26;20375;-79
2024/05/02 07:32:48;;;;;;;5.03;4.20;;;;;;;;;;5523428;26;20362;-79
2024/05/02 07:35:14;;;;;;;4.45;4.05;;;;;;;;;;5523854;26;20328;-79
2024/05/02 07:37:40;;;;;;;7.57;4.40;;;;;;;;;;5507139;26;20869;-79
2024/05/02 07:40:06;;;;;;;10.65;4.88;;;;;;;;;;5523411;26;20378;-79
2024/05/02 07:42:32;;;;;;;7.03;4.95;;;;;;;;;;5523336;26;20869;-79
2024/05/02 07:44:58;;;;;;;8.80;5.57;;;;;;;;;;5523535;26;20320;-79
2024/05/02 07:47:24;;;;;;;10.07;6.20;;;;;;;;;;5523737;26;20323;-79
2024/05/02 07:49:50;;;;;;;9.50;5.90;;;;;;;;;;5523306;26;20381;-79
2024/05/02 07:52:16;;;;;;;8.13;5.47;;;;;;;;;;5523568;26;20448;-78
2024/05/02 07:54:42;;;;;;;7.05;5.97;;;;;;;;;;5523670;26;20323;-79
2024/05/02 07:57:08;;;;;;;8.32;5.50;;;;;;;;;;5522909;26;20327;-79
2024/05/02 07:59:34;;;;;;;11.48;5.70;;;;;;;;;;5523400;26;20698;-79
2024/05/02 08:02:01;;;;;;;7.80;5.50;;;;;;;;;;5523030;26;20342;-78
2024/05/02 08:04:27;;;;;;;8.50;5.68;;;;;;;;;;5490294;26;20832;-78
2024/05/02 08:06:53;;;;;;;7.35;6.18;;;;;;;;;;5522811;26;20324;-79
2024/05/02 08:09:22;;;;;;;7.83;5.90;;;;;;;;;;5523080;26;20685;-78
2024/05/02 08:11:48;;;;;;;8.88;5.70;;;;;;;;;;5522803;26;20406;-78
2024/05/02 08:14:14;;;;;;;10.50;5.90;;;;;;;;;;5522519;26;20793;-78
2024/05/02 08:16:40;;;;;;;7.50;5.38;;;;;;;;;;5522642;26;20393;-78
2024/05/02 08:19:08;;;;;;;7.57;6.18;;;;;;;;;;5522792;26;20323;-78
2024/05/02 08:21:34;;;;;;;8.82;5.28;;;;;;;;;;5522705;26;20379;-78
2024/05/02 08:24:00;;;;;;;8.85;5.50;;;;;;;;;;5522950;26;20348;-78
2024/05/02 08:26:26;;;;;;;8.43;5.83;;;;;;;;;;5522509;26;20323;-78
2024/05/02 08:28:52;;;;;;;6.85;5.35;;;;;;;;;;5522619;26;20324;-78
2024/05/02 08:31:18;;;;;;;8.50;5.90;;;;;;;;;;5521978;26;20437;-78
2024/05/02 08:33:44;;;;;;;8.50;5.43;;;;;;;;;;5522257;26;20323;-78
2024/05/02 08:36:10;;;;;;;9.68;5.50;;;;;;;;;;5522064;26;20331;-78
2024/05/02 08:38:36;;;;;;;6.35;5.65;;;;;;;;;;5522110;26;20320;-78
2024/05/02 08:41:02;;;;;;;7.22;5.63;;;;;;;;;;5522510;26;20324;-78
2024/05/02 08:43:28;;;;;;;9.23;4.73;;;;;;;;;;5522059;26;20416;-78
2024/05/02 08:45:56;;;;;;;5.85;5.05;;;;;;;;;;5522485;26;20315;-78
2024/05/02 08:48:22;;;;;;;6.73;4.57;;;;;;;;;;5522234;26;20437;-79
2024/05/02 08:50:50;;;;;;;6.55;4.60;;;;;;;;;;5522573;26;20366;-78
2024/05/02 08:53:18;;;;;;;5.75;4.47;;;;;;;;;;5522164;26;20341;-78
2024/05/02 08:55:44;;;;;;;5.57;4.30;;;;;;;;;;5521909;26;20706;-79
2024/05/02 08:58:10;;;;;;;4.73;4.03;;;;;;;;;;5521936;26;20340;-79
2024/05/02 09:00:36;;;;;;;5.93;3.97;;;;;;;;;;5521857;26;20356;-79
2024/05/02 09:03:02;;;;;;;5.63;4.38;;;;;;;;;;5522060;26;20368;-78
2024/05/02 09:05:28;;;;;;;5.65;4.13;;;;;;;;;;5521598;26;20362;-79
2024/05/02 09:07:54;;;;;;;9.82;4.57;;;;;;;;;;5522977;26;20320;-79
2024/05/02 09:10:20;;;;;;;5.13;4.55;;;;;;;;;;5500788;26;20819;-78
2024/05/02 09:12:47;;;;;;;6.70;4.15;;;;;;;;;;5525945;26;20428;-79
2024/05/02 09:15:14;;;;;;;5.60;4.10;;;;;;;;;;5525722;26;20331;-79
2024/05/02 09:17:40;;;;;;;6.10;4.05;;;;;;;;;;5524868;26;20691;-79
2024/05/02 09:20:06;;;;;;;15.48;4.60;;;;;;;;;;5525441;26;20327;-79
2024/05/02 09:22:32;;;;;;;9.38;4.07;;;;;;;;;;5525061;26;20328;-79
2024/05/02 09:24:58;;;;;;;9.38;4.63;;;;;;;;;;5492884;26;20665;-79
2024/05/02 09:27:24;;;;;;;8.88;4.25;;;;;;;;;;5524862;26;20316;-78
2024/05/02 09:29:50;;;;;;;7.05;3.83;;;;;;;;;;5525328;26;20821;-78
2024/05/02 09:32:16;;;;;;;6.47;3.85;;;;;;;;;;5525438;26;20357;-78
2024/05/02 09:34:45;;;;;;;7.20;3.83;;;;;;;;;;5524803;26;20319;-78
2024/05/02 09:37:15;;;;;;;4.80;3.58;;;;;;;;;;5512696;26;20391;-78
2024/05/02 09:39:44;;;;;;;6.45;3.47;;;;;;;;;;5522998;26;20688;-78
2024/05/02 09:42:10;;;;;;;6.07;3.65;;;;;;;;;;5525092;26;20914;-78
2024/05/02 09:44:40;;;;;;;4.70;3.60;;;;;;;;;;5492823;26;20348;-78
2024/05/02 09:47:14;;;;;;;3.55;3.25;;;;;;;;;;5525451;26;20364;-78
2024/05/02 09:49:43;;;;;;;6.32;3.58;;;;;;;;;;5525192;26;20717;-80
2024/05/02 09:52:17;;;;;;;6.22;3.65;;;;;;;;;;5525051;26;20835;-80
2024/05/02 09:54:43;;;;;;;4.55;3.22;;;;;;;;;;5525340;26;20400;-80
2024/05/02 09:57:10;;;;;;;6.03;3.63;;;;;;;;;;5524990;26;20323;-80
2024/05/02 09:59:37;;;;;;;6.45;3.50;;;;;;;;;;5524607;26;20343;-80
2024/05/02 10:02:03;;;;;;;5.28;3.40;;;;;;;;;;5524690;26;20343;-80
2024/05/02 10:04:29;;;;;;;7.10;3.33;;;;;;;;;;5525210;26;20328;-80
2024/05/02 10:06:55;;;;;;;6.22;3.53;;;;;;;;;;5524837;26;20335;-80
2024/05/02 10:09:24;;;;;;;5.15;3.75;;;;;;;;;;5524735;26;20718;-80
2024/05/02 10:11:53;;;;;;;5.95;3.55;;;;;;;;;;5524707;26;20363;-80
2024/05/02 10:14:26;;;;;;;5.82;3.55;;;;;;;;;;5524625;26;20677;-80
2024/05/02 10:16:55;;;;;;;5.88;3.78;;;;;;;;;;5524383;26;20742;-80
2024/05/02 10:19:23;;;;;;;6.00;3.60;;;;;;;;;;5524281;26;20426;-80
2024/05/02 10:21:49;;;;;;;3.38;3.03;;;;;;;;;;5525434;26;20862;-79
2024/05/02 10:24:15;;;;;;;5.22;3.22;;;;;;;;;;5524651;26;20319;-78
2024/05/02 10:26:41;;;;;;;4.75;3.40;;;;;;;;;;5524243;26;20395;-78
2024/05/02 10:29:08;;;;;;;3.92;2.80;;;;;;;;;;5524236;26;20820;-78
2024/05/02 10:31:39;;;;;;;3.38;2.92;;;;;;;;;;5524582;26;20323;-78
2024/05/02 10:34:05;;;;;;;5.28;3.00;;;;;;;;;;5524644;26;20419;-78
2024/05/02 10:36:31;;;;;;;4.05;2.92;;;;;;;;;;5522269;26;20328;-78
2024/05/02 10:38:58;;;;;;;3.83;2.90;;;;;;;;;;5511217;26;20435;-78
2024/05/02 10:41:25;;;;;;;4.53;2.93;;;;;;;;;;5524303;26;20374;-79
2024/05/02 10:43:55;;;;;;;3.72;3.20;;;;;;;;;;5524383;26;20332;-79
2024/05/02 10:46:21;;;;;;;3.27;2.70;;;;;;;;;;5523915;26;20841;-79
2024/05/02 10:48:47;;;;;;;4.05;2.70;;;;;;;;;;5523709;26;20367;-79
2024/05/02 10:51:13;;;;;;;3.65;2.85;;;;;;;;;;5523953;26;20323;-78
2024/05/02 10:53:39;;;;;;;4.40;2.47;;;;;;;;;;5523810;26;20851;-78
2024/05/02 10:56:05;;;;;;;5.80;2.45;;;;;;;;;;5524629;26;20328;-78
2024/05/02 10:58:32;;;;;;;3.00;2.50;;;;;;;;;;5522687;26;20328;-78
2024/05/02 11:00:58;;;;;;;3.55;2.45;;;;;;;;;;5523534;26;20331;-78
2024/05/02 11:03:24;;;;;;;4.25;2.53;;;;;;;;;;5522069;26;20323;-78
2024/05/02 11:05:55;;;;;;;4.68;2.60;;;;;;;;;;5521685;26;20324;-78
2024/05/02 11:08:24;;;;;;;6.72;2.30;;;;;;;;;;5515916;26;20360;-78
2024/05/02 11:10:54;;;;;;;3.40;2.20;;;;;;;;;;5522171;26;20350;-78
2024/05/02 11:13:21;;;;;;;4.97;2.25;;;;;;;;;;5521953;26;20319;-78
2024/05/02 11:15:47;;;;;;;3.08;2.13;;;;;;;;;;5522000;26;20375;-78
2024/05/02 11:18:16;;;;;;;4.63;2.15;;;;;;;;;;5521821;26;20364;-78
2024/05/02 11:20:42;;;;;;;7.40;2.00;;;;;;;;;;5522435;26;20331;-78
2024/05/02 11:23:08;;;;;;;5.03;2.22;;;;;;;;;;5522100;26;20332;-78
2024/05/02 11:25:35;;;;;;;4.78;2.17;;;;;;;;;;5522314;26;20440;-78
2024/05/02 11:28:03;;;;;;;4.80;1.95;;;;;;;;;;5520848;26;20380;-78
2024/05/02 11:30:30;;;;;;;4.20;2.10;;;;;;;;;;5522488;26;20350;-78
2024/05/02 11:32:56;;;;;;;4.68;2.38;;;;;;;;;;5521940;26;20416;-79
2024/05/02 11:35:22;;;;;;;3.28;2.42;;;;;;;;;;5522973;26;20324;-78
2024/05/02 11:37:48;;;;;;;4.50;2.20;;;;;;;;;;5506848;26;20674;-78
2024/05/02 11:40:14;;;;;;;3.25;2.10;;;;;;;;;;5523831;26;20335;-78
2024/05/02 11:42:40;;;;;;;3.57;2.17;;;;;;;;;;5524246;26;20323;-78
2024/05/02 11:45:07;;;;;;;6.57;2.25;;;;;;;;;;5523913;26;20323;-78
2024/05/02 11:47:33;;;;;;;3.40;2.28;;;;;;;;;;5524342;26;20324;-78
2024/05/02 11:49:59;;;;;;;3.47;2.08;;;;;;;;;;5523162;26;20319;-78
2024/05/02 11:52:25;;;;;;;4.93;2.05;;;;;;;;;;5523821;26;20379;-78
2024/05/02 11:54:52;;;;;;;2.90;2.10;;;;;;;;;;5523939;26;20821;-78
2024/05/02 11:57:18;;;;;;;3.42;2.28;;;;;;;;;;5523821;26;20412;-78
2024/05/02 11:59:44;;;;;;;3.58;2.17;;;;;;;;;;5523760;26;20861;-78
2024/05/02 12:02:10;;;;;;;2.63;1.80;;;;;;;;;;5523289;26;20320;-78
2024/05/02 12:04:36;;;;;;;4.20;2.10;;;;;;;;;;5523492;26;20742;-78
2024/05/02 12:07:03;;;;;;;8.05;2.50;;;;;;;;;;5522920;26;20393;-78
2024/05/02 12:09:29;;;;;;;3.78;2.03;;;;;;;;;;5522907;26;20361;-78
2024/05/02 12:11:54;;;;;;;4.32;3.58;;;;;;;;;;5522669;26;20323;-78
2024/05/02 12:14:20;;;;;;;3.20;2.20;;;;;;;;;;5522320;26;20359;-78
2024/05/02 12:16:46;;;;;;;3.38;2.40;;;;;;;;;;5522436;26;20358;-78
2024/05/02 12:19:12;;;;;;;3.23;2.10;;;;;;;;;;5522589;26;20327;-78
2024/05/02 12:21:38;;;;;;;6.00;2.33;;;;;;;;;;5523051;26;20327;-78
2024/05/02 12:24:05;;;;;;;3.65;1.90;;;;;;;;;;5522758;26;20320;-78
2024/05/02 12:26:31;;;;;;;2.67;1.85;;;;;;;;;;5489936;26;20323;-78
2024/05/02 12:28:57;;;;;;;2.78;2.00;;;;;;;;;;5522513;26;20312;-78
2024/05/02 12:31:23;;;;;;;5.67;2.20;;;;;;;;;;5522417;26;20961;-77
2024/05/02 12:33:50;;;;;;;3.83;1.90;;;;;;;;;;5521787;26;20320;-77
2024/05/02 12:36:17;;;;;;;4.40;1.98;;;;;;;;;;5521637;26;20362;-77
2024/05/02 12:38:44;;;;;;;2.65;1.92;;;;;;;;;;5521699;26;20316;-77
2024/05/02 12:41:10;;;;;;;3.65;1.83;;;;;;;;;;5522022;26;20300;-77
2024/05/02 12:43:36;;;;;;;5.33;2.00;;;;;;;;;;5523801;26;20383;-77
2024/05/02 12:46:02;;;;;;;2.55;1.90;;;;;;;;;;5524669;26;20312;-77
2024/05/02 12:48:28;;;;;;;4.50;1.70;;;;;;;;;;5525131;26;20947;-77
2024/05/02 12:50:55;;;;;;;3.40;1.58;;;;;;;;;;5525623;26;20375;-77
2024/05/02 12:53:21;;;;;;;2.25;1.70;;;;;;;;;;5525197;26;20332;-77
2024/05/02 12:55:47;;;;;;;3.13;1.60;;;;;;;;;;5525943;26;20409;-77
2024/05/02 12:58:14;;;;;;;3.97;1.90;;;;;;;;;;5525104;26;20324;-77
2024/05/02 13:00:40;;;;;;;4.43;2.10;;;;;;;;;;5524876;26;20319;-77
2024/05/02 13:03:06;;;;;;;18.53;2.50;;;;;;;;;;5525324;26;20690;-77
2024/05/02 13:05:34;;;;;;;4.97;1.70;;;;;;;;;;5492672;26;20389;-77
2024/05/02 13:08:00;;;;;;;3.83;1.30;;;;;;;;;;5525131;26;20316;-77
2024/05/02 13:10:27;;;;;;;5.45;1.30;;;;;;;;;;5525083;26;20363;-77
2024/05/02 13:12:53;;;;;;;19.92;1.75;;;;;;;;;;5525379;26;20335;-77
2024/05/02 13:15:19;;;;;;;7.63;1.20;;;;;;;;;;5525232;26;20316;-77
2024/05/02 13:17:45;;;;;;;11.00;1.35;;;;;;;;;;5518993;26;20412;-77
2024/05/02 13:20:13;;;;;;;17.58;1.92;;;;;;;;;;5524816;26;20319;-77
2024/05/02 13:22:39;;;;;;;6.32;1.20;;;;;;;;;;5524677;26;20320;-77
2024/05/02 13:25:05;;;;;;;23.83;1.30;;;;;;;;;;5525005;26;20327;-77
2024/05/02 13:27:31;;;;;;;4.85;0.70;;;;;;;;;;5524507;26;20867;-77
2024/05/02 13:29:57;;;;;;;15.00;1.10;;;;;;;;;;5524331;26;20320;-77
2024/05/02 13:32:23;;;;;;;2.05;0.43;;;;;;;;;;5524609;26;20319;-77
2024/05/02 13:34:49;;;;;;;11.70;1.00;;;;;;;;;;5524832;26;20475;-77
2024/05/02 13:37:15;;;;;;;11.35;0.93;;;;;;;;;;5511732;26;20318;-77
2024/05/02 13:39:41;;;;;;;9.13;0.60;;;;;;;;;;5485903;26;20395;-77
2024/05/02 13:42:07;;;;;;;22.70;1.37;;;;;;;;;;5507662;26;20451;-77
2024/05/02 13:44:33;;;;;;;10.05;0.50;;;;;;;;;;5524448;26;20448;-77
2024/05/02 13:46:59;;;;;;;17.73;1.02;;;;;;;;;;5524841;26;20820;-77
2024/05/02 13:49:25;;;;;;;5.07;0.20;;;;;;;;;;5524578;26;20320;-77
2024/05/02 13:51:51;;;;;;;11.20;0.60;;;;;;;;;;5524765;26;20707;-77
2024/05/02 13:54:17;;;;;;;10.00;0.60;;;;;;;;;;5524086;26;20316;-78
2024/05/02 13:56:43;;;;;;;3.92;0.40;;;;;;;;;;5524671;26;20358;-77
2024/05/02 13:59:09;;;;;;;2.60;0.40;;;;;;;;;;5524376;26;20379;-77
2024/05/02 14:01:36;;;;;;;3.90;0.40;;;;;;;;;;5524486;26;20312;-77
2024/05/02 14:04:02;;;;;;;0.80;0.13;;;;;;;;;;5524005;26;20426;-78
2024/05/02 14:06:28;;;;;;;1.63;0.43;;;;;;;;;;5524189;26;20331;-78
2024/05/02 14:08:55;;;;;;;0.57;0.20;;;;;;;;;;5524044;26;20328;-78
2024/05/02 14:11:21;;;;;;;1.20;0.20;;;;;;;;;;5524317;26;20327;-77
2024/05/02 14:13:47;;;;;;;3.08;0.30;;;;;;;;;;5524235;26;20351;-78
2024/05/02 14:16:13;;;;;;;1.77;0.30;;;;;;;;;;5524232;26;20446;-78
2024/05/02 14:18:39;;;;;;;2.03;0.40;;;;;;;;;;5524554;26;20827;-78
2024/05/02 14:21:05;;;;;;;3.50;0.40;;;;;;;;;;5524454;26;20401;-77
2024/05/02 14:23:31;;;;;;;2.30;0.35;;;;;;;;;;5524231;26;20331;-78
2024/05/02 14:25:57;;;;;;;1.60;0.10;;;;;;;;;;5524478;26;20327;-78
2024/05/02 14:28:23;;;;;;;2.55;0.20;;;;;;;;;;5524049;26;20320;-78
2024/05/02 14:30:49;;;;;;;3.00;0.20;;;;;;;;;;5524199;26;20376;-78
2024/05/02 14:33:15;;;;;;;1.10;0.20;;;;;;;;;;5524187;26;20406;-78
2024/05/02 14:35:44;;;;;;;1.40;0.20;;;;;;;;;;5524294;26;20471;-78
2024/05/02 14:38:10;;;;;;;1.02;0.43;;;;;;;;;;5507904;26;20355;-78